createdAt,value
2022-11-24T00:09:35.317Z,4.62
2022-11-24T00:19:37.028Z,4.60
2022-11-24T00:29:39.500Z,4.69
2022-11-24T00:39:41.187Z,4.54
2022-11-24T00:49:44.827Z,4.57
2022-11-24T00:59:47.903Z,4.41
2022-11-24T01:09:52.577Z,4.51
2022-11-24T01:19:54.285Z,4.44
2022-11-24T01:29:55.922Z,4.44
2022-11-24T01:39:57.611Z,4.44
2022-11-24T01:50:01.946Z,4.45
2022-11-24T02:00:11.944Z,4.45
2022-11-24T02:10:17.427Z,4.36
2022-11-24T02:20:19.281Z,4.41
2022-11-24T02:30:21.202Z,4.41
2022-11-24T02:40:27.050Z,4.34
2022-11-24T02:50:28.917Z,4.41
2022-11-24T03:00:30.756Z,4.14
2022-11-24T03:10:37.554Z,3.97
2022-11-24T03:20:39.272Z,4.08
2022-11-24T03:30:41.017Z,3.88
2022-11-24T03:40:42.755Z,3.81
2022-11-24T03:50:53.251Z,3.77
2022-11-24T04:00:56.195Z,3.77
2022-11-24T04:10:57.917Z,3.77
2022-11-24T04:21:01.738Z,3.67
2022-11-24T04:31:03.857Z,3.58
2022-11-24T04:41:05.911Z,3.50
2022-11-24T04:51:07.835Z,3.57
2022-11-24T05:01:09.956Z,3.58
2022-11-24T05:11:11.748Z,3.39
2022-11-24T05:21:13.378Z,3.21
2022-11-24T05:31:15.091Z,3.24
2022-11-24T05:41:16.732Z,3.28
2022-11-24T05:51:31.068Z,3.38
2022-11-24T06:01:37.890Z,3.42
2022-11-24T06:11:40.603Z,3.46
2022-11-24T06:21:42.242Z,3.50
2022-11-24T06:31:43.937Z,3.70
2022-11-24T06:41:46.656Z,3.84
2022-11-24T06:51:50.606Z,3.94
2022-11-24T07:01:52.870Z,4.04
2022-11-24T07:11:55.864Z,4.19
2022-11-24T07:21:59.593Z,4.09
2022-11-24T07:32:05.394Z,4.25
2022-11-24T07:42:08.590Z,4.39
2022-11-24T07:52:11.433Z,4.42
2022-11-24T08:02:13.459Z,4.55
2022-11-24T08:12:17.015Z,4.59
2022-11-24T08:22:18.599Z,4.79
2022-11-24T08:32:22.403Z,4.68
2022-11-24T08:42:25.295Z,4.80
2022-11-24T08:52:26.946Z,4.81
2022-11-24T09:02:28.700Z,4.89
2022-11-24T09:12:34.804Z,5.12
2022-11-24T09:22:38.262Z,5.20
2022-11-24T09:32:41.514Z,5.53
2022-11-24T09:43:17.601Z,6.02
2022-11-24T09:53:26.449Z,6.77
2022-11-24T10:03:39.939Z,6.56
2022-11-24T10:13:56.784Z,6.02
2022-11-24T10:24:30.248Z,5.58
2022-11-24T10:34:44.871Z,5.47
2022-11-24T10:44:46.881Z,5.85
2022-11-24T10:55:00.224Z,6.41
2022-11-24T11:05:31.720Z,6.43
2022-11-24T11:15:37.706Z,6.69
2022-11-24T11:25:43.987Z,6.81
2022-11-24T11:35:46.148Z,6.86
2022-11-24T11:46:13.384Z,6.84
2022-11-24T11:56:27.187Z,6.87
2022-11-24T12:06:31.737Z,7.72
2022-11-24T12:16:54.980Z,9.60
2022-11-24T12:27:25.317Z,12.00
2022-11-24T12:37:39.142Z,12.39
2022-11-24T12:48:04.497Z,12.80
2022-11-24T12:58:22.876Z,11.14
2022-11-24T13:08:29.575Z,12.43
2022-11-24T13:19:22.972Z,8.71
2022-11-24T13:29:25.621Z,7.24
2022-11-24T13:39:50.483Z,7.07
2022-11-24T13:49:55.637Z,7.06
2022-11-24T14:00:04.963Z,7.17
2022-11-24T14:10:39.122Z,6.97
2022-11-24T14:20:41.103Z,7.21
2022-11-24T14:31:07.579Z,6.71
2022-11-24T14:41:28.468Z,6.32
2022-11-24T14:51:43.509Z,6.33
2022-11-24T15:01:48.939Z,6.24
2022-11-24T15:11:55.513Z,5.97
2022-11-24T15:21:57.097Z,5.86
2022-11-24T15:31:58.809Z,5.67
2022-11-24T15:42:05.025Z,5.66
2022-11-24T15:52:07.298Z,5.46
2022-11-24T16:02:09.791Z,5.34
2022-11-24T16:12:12.629Z,5.23
2022-11-24T16:22:14.250Z,5.11
2022-11-24T16:32:26.574Z,4.96
2022-11-24T16:42:28.842Z,4.92
2022-11-24T16:52:34.060Z,4.91
2022-11-24T17:02:36.399Z,4.88
2022-11-24T17:12:38.587Z,4.63
2022-11-24T17:22:40.574Z,4.54
2022-11-24T17:32:42.297Z,4.46
2022-11-24T17:42:45.979Z,4.33
2022-11-24T17:52:48.188Z,4.29
2022-11-24T18:02:50.168Z,4.21
2022-11-24T18:12:52.055Z,4.11
2022-11-24T18:23:09.047Z,4.00
2022-11-24T18:33:12.095Z,3.89
2022-11-24T18:43:16.986Z,3.82
2022-11-24T18:53:25.555Z,3.81
2022-11-24T19:03:27.328Z,3.84
2022-11-24T19:13:33.494Z,3.60
2022-11-24T19:23:35.866Z,3.26
2022-11-24T19:33:38.406Z,3.32
2022-11-24T19:43:42.326Z,3.35
2022-11-24T19:53:47.490Z,3.25
2022-11-24T20:04:02.425Z,3.21
2022-11-24T20:14:06.809Z,3.22
2022-11-24T20:24:16.712Z,3.18
2022-11-24T20:34:20.769Z,3.25
2022-11-24T20:44:26.886Z,3.16
2022-11-24T20:54:30.755Z,3.10
2022-11-24T21:04:36.114Z,3.18
2022-11-24T21:14:42.060Z,3.04
2022-11-24T21:24:43.743Z,3.05
2022-11-24T21:34:46.119Z,3.22
2022-11-24T21:44:50.657Z,3.09
2022-11-24T21:54:52.535Z,2.95
2022-11-24T22:04:56.471Z,2.79
2022-11-24T22:15:00.530Z,2.59
2022-11-24T22:25:03.157Z,2.69
2022-11-24T22:35:06.402Z,2.80
2022-11-24T22:45:09.713Z,2.94
2022-11-24T22:55:12.350Z,3.07
2022-11-24T23:05:20.694Z,3.10
2022-11-24T23:15:22.614Z,2.94
2022-11-24T23:25:26.405Z,3.02
2022-11-24T23:35:28.106Z,3.14
2022-11-24T23:45:29.815Z,3.16
2022-11-24T23:55:31.463Z,3.05
